sensor_id;sensor_type;location;lat;lon;timestamp;pressure;altitude;pressure_sealevel;temperature
82636;BMP280;72317;37.280;-121.948;2024-02-21T00:02:59;100781.38;;;13.41
82636;BMP280;72317;37.280;-121.948;2024-02-21T00:08:00;100677.16;;;13.30
82636;BMP280;72317;37.280;-121.948;2024-02-21T00:13:01;100714.47;;;13.36
82636;BMP280;72317;37.280;-121.948;2024-02-21T00:18:02;100763.69;;;13.36
82636;BMP280;72317;37.280;-121.948;2024-02-21T00:23:03;100761.84;;;13.51
82636;BMP280;72317;37.280;-121.948;2024-02-21T00:28:04;100670.69;;;13.49
82636;BMP280;72317;37.280;-121.948;2024-02-21T00:33:05;100593.81;;;13.77
82636;BMP280;72317;37.280;-121.948;2024-02-21T00:38:06;100419.94;;;13.54
82636;BMP280;72317;37.280;-121.948;2024-02-21T00:43:07;100355.31;;;13.54
82636;BMP280;72317;37.280;-121.948;2024-02-21T00:48:07;100396.13;;;13.46
82636;BMP280;72317;37.280;-121.948;2024-02-21T00:53:08;100456.50;;;13.41
82636;BMP280;72317;37.280;-121.948;2024-02-21T00:58:09;100534.56;;;13.41
82636;BMP280;72317;37.280;-121.948;2024-02-21T01:03:10;100695.28;;;13.48
82636;BMP280;72317;37.280;-121.948;2024-02-21T01:08:11;100758.72;;;13.38
82636;BMP280;72317;37.280;-121.948;2024-02-21T01:13:11;100866.19;;;13.17
82636;BMP280;72317;37.280;-121.948;2024-02-21T01:18:12;100844.59;;;13.06
82636;BMP280;72317;37.280;-121.948;2024-02-21T01:23:13;100856.44;;;12.98
82636;BMP280;72317;37.280;-121.948;2024-02-21T01:28:14;100909.69;;;12.78
82636;BMP280;72317;37.280;-121.948;2024-02-21T01:33:14;100940.03;;;12.79
82636;BMP280;72317;37.280;-121.948;2024-02-21T01:38:15;101021.94;;;12.85
82636;BMP280;72317;37.280;-121.948;2024-02-21T01:43:18;100990.72;;;12.77
82636;BMP280;72317;37.280;-121.948;2024-02-21T01:48:20;100964.34;;;12.86
82636;BMP280;72317;37.280;-121.948;2024-02-21T01:53:30;100938.25;;;12.90
82636;BMP280;72317;37.280;-121.948;2024-02-21T01:58:36;100897.53;;;12.95
82636;BMP280;72317;37.280;-121.948;2024-02-21T02:03:38;100867.25;;;13.02
82636;BMP280;72317;37.280;-121.948;2024-02-21T02:08:38;100886.44;;;12.59
82636;BMP280;72317;37.280;-121.948;2024-02-21T02:13:39;100865.31;;;12.58
82636;BMP280;72317;37.280;-121.948;2024-02-21T02:18:40;100809.06;;;12.83
82636;BMP280;72317;37.280;-121.948;2024-02-21T02:23:41;100814.03;;;12.77
82636;BMP280;72317;37.280;-121.948;2024-02-21T02:28:42;100783.38;;;12.85
82636;BMP280;72317;37.280;-121.948;2024-02-21T02:33:43;100807.50;;;12.78
82636;BMP280;72317;37.280;-121.948;2024-02-21T02:38:44;100777.09;;;12.74
82636;BMP280;72317;37.280;-121.948;2024-02-21T02:43:45;100794.13;;;12.85
82636;BMP280;72317;37.280;-121.948;2024-02-21T02:48:45;100782.97;;;12.87
82636;BMP280;72317;37.280;-121.948;2024-02-21T02:53:46;100753.78;;;12.89
82636;BMP280;72317;37.280;-121.948;2024-02-21T02:58:47;100717.75;;;13.00
82636;BMP280;72317;37.280;-121.948;2024-02-21T03:03:48;100711.13;;;12.87
82636;BMP280;72317;37.280;-121.948;2024-02-21T03:08:49;100690.44;;;12.95
82636;BMP280;72317;37.280;-121.948;2024-02-21T03:13:49;100684.66;;;12.86
82636;BMP280;72317;37.280;-121.948;2024-02-21T03:18:50;100663.09;;;12.82
82636;BMP280;72317;37.280;-121.948;2024-02-21T03:23:51;100667.31;;;12.83
82636;BMP280;72317;37.280;-121.948;2024-02-21T03:28:52;100706.38;;;12.66
82636;BMP280;72317;37.280;-121.948;2024-02-21T03:33:52;100727.91;;;12.66
82636;BMP280;72317;37.280;-121.948;2024-02-21T03:38:54;100716.00;;;12.67
82636;BMP280;72317;37.280;-121.948;2024-02-21T03:43:55;100713.66;;;12.66
82636;BMP280;72317;37.280;-121.948;2024-02-21T03:48:56;100701.81;;;12.70
82636;BMP280;72317;37.280;-121.948;2024-02-21T03:53:57;100719.34;;;12.54
82636;BMP280;72317;37.280;-121.948;2024-02-21T03:58:58;100742.03;;;12.60
82636;BMP280;72317;37.280;-121.948;2024-02-21T04:03:59;100727.50;;;12.64
82636;BMP280;72317;37.280;-121.948;2024-02-21T04:08:59;100738.97;;;12.58
82636;BMP280;72317;37.280;-121.948;2024-02-21T04:14:00;100766.88;;;12.46
82636;BMP280;72317;37.280;-121.948;2024-02-21T04:19:01;100771.88;;;12.44
82636;BMP280;72317;37.280;-121.948;2024-02-21T04:24:02;100773.41;;;12.45
82636;BMP280;72317;37.280;-121.948;2024-02-21T04:29:02;100799.06;;;12.39
82636;BMP280;72317;37.280;-121.948;2024-02-21T04:34:03;100806.06;;;12.44
82636;BMP280;72317;37.280;-121.948;2024-02-21T04:39:04;100822.81;;;12.33
82636;BMP280;72317;37.280;-121.948;2024-02-21T04:44:05;100847.50;;;12.09
82636;BMP280;72317;37.280;-121.948;2024-02-21T04:49:05;100868.75;;;12.21
82636;BMP280;72317;37.280;-121.948;2024-02-21T04:54:06;100887.56;;;12.21
82636;BMP280;72317;37.280;-121.948;2024-02-21T04:59:07;100890.06;;;12.10
82636;BMP280;72317;37.280;-121.948;2024-02-21T05:04:08;100860.41;;;12.30
82636;BMP280;72317;37.280;-121.948;2024-02-21T05:09:09;100846.91;;;12.26
82636;BMP280;72317;37.280;-121.948;2024-02-21T05:14:10;100897.41;;;11.84
82636;BMP280;72317;37.280;-121.948;2024-02-21T05:19:11;100901.31;;;11.90
82636;BMP280;72317;37.280;-121.948;2024-02-21T05:24:12;100902.56;;;11.96
82636;BMP280;72317;37.280;-121.948;2024-02-21T05:29:12;100909.34;;;11.86
82636;BMP280;72317;37.280;-121.948;2024-02-21T05:34:13;100906.66;;;11.86
82636;BMP280;72317;37.280;-121.948;2024-02-21T05:39:14;100911.16;;;11.78
82636;BMP280;72317;37.280;-121.948;2024-02-21T05:44:15;100909.91;;;11.72
82636;BMP280;72317;37.280;-121.948;2024-02-21T05:49:16;100907.41;;;11.83
82636;BMP280;72317;37.280;-121.948;2024-02-21T05:54:16;100892.06;;;11.84
82636;BMP280;72317;37.280;-121.948;2024-02-21T05:59:17;100902.16;;;11.67
82636;BMP280;72317;37.280;-121.948;2024-02-21T06:04:18;100892.38;;;11.78
82636;BMP280;72317;37.280;-121.948;2024-02-21T06:09:19;100868.75;;;11.91
82636;BMP280;72317;37.280;-121.948;2024-02-21T06:14:20;100861.19;;;12.00
82636;BMP280;72317;37.280;-121.948;2024-02-21T06:19:20;100882.22;;;11.95
82636;BMP280;72317;37.280;-121.948;2024-02-21T06:24:21;100883.41;;;11.97
82636;BMP280;72317;37.280;-121.948;2024-02-21T06:29:22;100872.63;;;11.94
82636;BMP280;72317;37.280;-121.948;2024-02-21T06:34:23;100864.94;;;11.96
82636;BMP280;72317;37.280;-121.948;2024-02-21T06:39:23;100871.94;;;12.00
82636;BMP280;72317;37.280;-121.948;2024-02-21T06:44:25;100874.22;;;11.98
82636;BMP280;72317;37.280;-121.948;2024-02-21T06:49:26;100860.84;;;12.02
82636;BMP280;72317;37.280;-121.948;2024-02-21T06:54:27;100866.88;;;11.95
82636;BMP280;72317;37.280;-121.948;2024-02-21T06:59:27;100858.16;;;12.02
82636;BMP280;72317;37.280;-121.948;2024-02-21T07:04:28;100863.47;;;11.98
82636;BMP280;72317;37.280;-121.948;2024-02-21T07:09:29;100849.63;;;11.96
82636;BMP280;72317;37.280;-121.948;2024-02-21T07:14:32;100877.19;;;11.63
82636;BMP280;72317;37.280;-121.948;2024-02-21T07:19:32;100893.06;;;11.49
82636;BMP280;72317;37.280;-121.948;2024-02-21T07:24:33;100860.56;;;11.54
82636;BMP280;72317;37.280;-121.948;2024-02-21T07:29:34;100887.78;;;11.30
82636;BMP280;72317;37.280;-121.948;2024-02-21T07:34:35;100898.69;;;11.17
82636;BMP280;72317;37.280;-121.948;2024-02-21T07:39:36;100899.41;;;11.14
82636;BMP280;72317;37.280;-121.948;2024-02-21T07:44:37;100901.09;;;11.23
82636;BMP280;72317;37.280;-121.948;2024-02-21T07:49:43;100904.50;;;11.19
82636;BMP280;72317;37.280;-121.948;2024-02-21T07:54:44;100922.41;;;11.15
82636;BMP280;72317;37.280;-121.948;2024-02-21T07:59:45;100934.03;;;11.00
82636;BMP280;72317;37.280;-121.948;2024-02-21T08:04:46;100925.41;;;11.10
82636;BMP280;72317;37.280;-121.948;2024-02-21T08:09:46;100939.97;;;10.90
82636;BMP280;72317;37.280;-121.948;2024-02-21T08:14:47;100969.19;;;10.76
82636;BMP280;72317;37.280;-121.948;2024-02-21T08:19:48;100981.56;;;10.64
82636;BMP280;72317;37.280;-121.948;2024-02-21T08:24:49;100980.19;;;10.71
82636;BMP280;72317;37.280;-121.948;2024-02-21T08:29:49;100987.66;;;10.61
82636;BMP280;72317;37.280;-121.948;2024-02-21T08:34:50;101005.00;;;10.68
82636;BMP280;72317;37.280;-121.948;2024-02-21T08:39:51;101038.38;;;10.35
82636;BMP280;72317;37.280;-121.948;2024-02-21T08:44:52;101026.75;;;10.47
82636;BMP280;72317;37.280;-121.948;2024-02-21T08:49:53;101020.84;;;10.57
82636;BMP280;72317;37.280;-121.948;2024-02-21T08:54:54;101038.44;;;10.54
82636;BMP280;72317;37.280;-121.948;2024-02-21T08:59:54;101041.69;;;10.48
82636;BMP280;72317;37.280;-121.948;2024-02-21T09:04:55;101038.31;;;10.51
82636;BMP280;72317;37.280;-121.948;2024-02-21T09:09:56;101068.03;;;10.11
82636;BMP280;72317;37.280;-121.948;2024-02-21T09:14:57;101043.13;;;10.26
82636;BMP280;72317;37.280;-121.948;2024-02-21T09:19:57;101052.47;;;10.16
82636;BMP280;72317;37.280;-121.948;2024-02-21T09:24:58;101071.53;;;10.15
82636;BMP280;72317;37.280;-121.948;2024-02-21T09:29:59;101091.06;;;9.99
82636;BMP280;72317;37.280;-121.948;2024-02-21T09:35:00;101082.25;;;10.15
82636;BMP280;72317;37.280;-121.948;2024-02-21T09:40:01;101088.91;;;10.05
82636;BMP280;72317;37.280;-121.948;2024-02-21T09:45:04;101108.84;;;9.92
82636;BMP280;72317;37.280;-121.948;2024-02-21T09:50:08;101119.19;;;9.77
82636;BMP280;72317;37.280;-121.948;2024-02-21T09:55:09;101101.97;;;9.63
82636;BMP280;72317;37.280;-121.948;2024-02-21T10:00:10;101088.78;;;9.70
82636;BMP280;72317;37.280;-121.948;2024-02-21T10:05:11;101104.75;;;9.82
82636;BMP280;72317;37.280;-121.948;2024-02-21T10:10:11;101113.09;;;9.93
82636;BMP280;72317;37.280;-121.948;2024-02-21T10:15:12;101137.16;;;9.77
82636;BMP280;72317;37.280;-121.948;2024-02-21T10:20:13;101141.22;;;9.87
82636;BMP280;72317;37.280;-121.948;2024-02-21T10:25:14;101161.81;;;9.70
82636;BMP280;72317;37.280;-121.948;2024-02-21T10:30:15;101172.31;;;9.63
82636;BMP280;72317;37.280;-121.948;2024-02-21T10:35:25;101165.16;;;9.67
82636;BMP280;72317;37.280;-121.948;2024-02-21T10:40:28;101188.94;;;9.57
82636;BMP280;72317;37.280;-121.948;2024-02-21T10:45:34;101179.06;;;9.73
82636;BMP280;72317;37.280;-121.948;2024-02-21T10:56:51;101195.50;;;9.59
82636;BMP280;72317;37.280;-121.948;2024-02-21T11:01:28;101202.22;;;9.53
82636;BMP280;72317;37.280;-121.948;2024-02-21T11:06:29;101210.16;;;9.50
82636;BMP280;72317;37.280;-121.948;2024-02-21T11:11:38;101235.28;;;9.33
82636;BMP280;72317;37.280;-121.948;2024-02-21T11:16:40;101212.56;;;9.67
82636;BMP280;72317;37.280;-121.948;2024-02-21T11:21:41;101212.38;;;9.60
82636;BMP280;72317;37.280;-121.948;2024-02-21T11:26:42;101202.09;;;9.62
82636;BMP280;72317;37.280;-121.948;2024-02-21T11:31:44;101204.78;;;9.50
82636;BMP280;72317;37.280;-121.948;2024-02-21T11:36:52;101202.16;;;9.37
82636;BMP280;72317;37.280;-121.948;2024-02-21T11:42:07;101217.13;;;9.14
82636;BMP280;72317;37.280;-121.948;2024-02-21T11:47:08;101207.88;;;9.24
82636;BMP280;72317;37.280;-121.948;2024-02-21T11:52:09;101221.31;;;9.15
82636;BMP280;72317;37.280;-121.948;2024-02-21T11:57:10;101228.81;;;9.09
82636;BMP280;72317;37.280;-121.948;2024-02-21T12:02:12;101235.25;;;9.21
82636;BMP280;72317;37.280;-121.948;2024-02-21T12:07:14;101249.06;;;8.98
82636;BMP280;72317;37.280;-121.948;2024-02-21T12:12:19;101265.41;;;8.84
82636;BMP280;72317;37.280;-121.948;2024-02-21T12:17:20;101245.16;;;9.08
82636;BMP280;72317;37.280;-121.948;2024-02-21T12:22:21;101257.41;;;8.97
82636;BMP280;72317;37.280;-121.948;2024-02-21T12:27:22;101280.56;;;8.80
82636;BMP280;72317;37.280;-121.948;2024-02-21T12:32:23;101275.78;;;8.86
82636;BMP280;72317;37.280;-121.948;2024-02-21T12:37:25;101281.91;;;8.86
82636;BMP280;72317;37.280;-121.948;2024-02-21T12:42:26;101290.59;;;8.83
82636;BMP280;72317;37.280;-121.948;2024-02-21T12:47:27;101292.06;;;8.93
82636;BMP280;72317;37.280;-121.948;2024-02-21T12:52:28;101303.88;;;8.92
82636;BMP280;72317;37.280;-121.948;2024-02-21T12:57:29;101316.63;;;8.74
82636;BMP280;72317;37.280;-121.948;2024-02-21T13:02:30;101321.81;;;8.71
82636;BMP280;72317;37.280;-121.948;2024-02-21T13:07:31;101323.94;;;8.65
82636;BMP280;72317;37.280;-121.948;2024-02-21T13:12:32;101337.72;;;8.55
82636;BMP280;72317;37.280;-121.948;2024-02-21T13:17:32;101330.13;;;8.57
82636;BMP280;72317;37.280;-121.948;2024-02-21T13:22:33;101354.97;;;8.37
82636;BMP280;72317;37.280;-121.948;2024-02-21T13:27:34;101337.72;;;8.55
82636;BMP280;72317;37.280;-121.948;2024-02-21T13:32:35;101342.97;;;8.43
82636;BMP280;72317;37.280;-121.948;2024-02-21T13:37:36;101370.31;;;8.19
82636;BMP280;72317;37.280;-121.948;2024-02-21T13:42:37;101360.44;;;8.40
82636;BMP280;72317;37.280;-121.948;2024-02-21T13:47:38;101365.47;;;8.42
82636;BMP280;72317;37.280;-121.948;2024-02-21T13:52:39;101367.28;;;8.50
82636;BMP280;72317;37.280;-121.948;2024-02-21T13:57:39;101365.72;;;8.49
82636;BMP280;72317;37.280;-121.948;2024-02-21T14:02:40;101375.34;;;8.41
82636;BMP280;72317;37.280;-121.948;2024-02-21T14:07:41;101379.47;;;8.39
82636;BMP280;72317;37.280;-121.948;2024-02-21T14:12:42;101389.44;;;8.29
82636;BMP280;72317;37.280;-121.948;2024-02-21T14:17:43;101387.72;;;8.25
82636;BMP280;72317;37.280;-121.948;2024-02-21T14:22:43;101399.84;;;8.22
82636;BMP280;72317;37.280;-121.948;2024-02-21T14:27:44;101391.06;;;8.22
82636;BMP280;72317;37.280;-121.948;2024-02-21T14:32:45;101412.91;;;8.15
82636;BMP280;72317;37.280;-121.948;2024-02-21T14:37:46;101399.00;;;8.30
82636;BMP280;72317;37.280;-121.948;2024-02-21T14:42:46;101413.41;;;8.09
82636;BMP280;72317;37.280;-121.948;2024-02-21T14:47:47;101423.53;;;8.03
82636;BMP280;72317;37.280;-121.948;2024-02-21T14:52:48;101422.88;;;8.06
82636;BMP280;72317;37.280;-121.948;2024-02-21T14:57:49;101431.09;;;7.92
82636;BMP280;72317;37.280;-121.948;2024-02-21T15:02:50;101445.75;;;8.16
82636;BMP280;72317;37.280;-121.948;2024-02-21T15:07:51;101445.72;;;8.45
82636;BMP280;72317;37.280;-121.948;2024-02-21T15:12:52;101430.09;;;8.77
82636;BMP280;72317;37.280;-121.948;2024-02-21T15:17:53;101398.75;;;9.43
82636;BMP280;72317;37.280;-121.948;2024-02-21T15:22:54;101353.28;;;9.68
82636;BMP280;72317;37.280;-121.948;2024-02-21T15:27:54;101355.34;;;9.01
82636;BMP280;72317;37.280;-121.948;2024-02-21T15:32:55;101314.94;;;9.27
82636;BMP280;72317;37.280;-121.948;2024-02-21T15:37:57;101259.06;;;9.62
82636;BMP280;72317;37.280;-121.948;2024-02-21T15:42:58;101030.53;;;10.61
82636;BMP280;72317;37.280;-121.948;2024-02-21T15:47:59;100903.78;;;10.22
82636;BMP280;72317;37.280;-121.948;2024-02-21T15:53:00;100890.19;;;9.96
82636;BMP280;72317;37.280;-121.948;2024-02-21T15:58:00;100934.25;;;9.83
82636;BMP280;72317;37.280;-121.948;2024-02-21T16:03:01;100935.41;;;10.17
82636;BMP280;72317;37.280;-121.948;2024-02-21T16:08:02;100929.16;;;10.28
82636;BMP280;72317;37.280;-121.948;2024-02-21T16:13:03;100850.59;;;10.82
82636;BMP280;72317;37.280;-121.948;2024-02-21T16:18:04;100787.16;;;10.67
82636;BMP280;72317;37.280;-121.948;2024-02-21T16:23:05;100709.66;;;10.81
82636;BMP280;72317;37.280;-121.948;2024-02-21T16:28:06;100628.53;;;11.14
82636;BMP280;72317;37.280;-121.948;2024-02-21T16:33:06;100316.16;;;12.36
82636;BMP280;72317;37.280;-121.948;2024-02-21T16:38:07;100189.31;;;11.52
82636;BMP280;72317;37.280;-121.948;2024-02-21T16:43:08;100069.72;;;11.47
82636;BMP280;72317;37.280;-121.948;2024-02-21T16:48:09;100112.25;;;11.49
82636;BMP280;72317;37.280;-121.948;2024-02-21T16:53:10;100078.97;;;11.71
82636;BMP280;72317;37.280;-121.948;2024-02-21T16:58:10;100048.66;;;11.74
82636;BMP280;72317;37.280;-121.948;2024-02-21T17:03:11;100083.94;;;12.19
82636;BMP280;72317;37.280;-121.948;2024-02-21T17:08:12;100016.06;;;12.12
82636;BMP280;72317;37.280;-121.948;2024-02-21T17:13:13;99907.06;;;12.25
82636;BMP280;72317;37.280;-121.948;2024-02-21T17:18:14;99583.47;;;13.12
82636;BMP280;72317;37.280;-121.948;2024-02-21T17:23:14;99273.03;;;12.89
82636;BMP280;72317;37.280;-121.948;2024-02-21T17:28:15;99421.22;;;12.95
82636;BMP280;72317;37.280;-121.948;2024-02-21T17:33:16;99496.38;;;13.02
82636;BMP280;72317;37.280;-121.948;2024-02-21T17:38:17;99539.84;;;12.97
82636;BMP280;72317;37.280;-121.948;2024-02-21T17:43:18;99553.47;;;13.13
82636;BMP280;72317;37.280;-121.948;2024-02-21T17:48:18;99421.00;;;13.33
82636;BMP280;72317;37.280;-121.948;2024-02-21T17:53:19;99208.06;;;13.54
82636;BMP280;72317;37.280;-121.948;2024-02-21T17:58:20;98792.28;;;14.04
82636;BMP280;72317;37.280;-121.948;2024-02-21T18:03:21;98628.03;;;14.29
82636;BMP280;72317;37.280;-121.948;2024-02-21T18:08:21;98159.41;;;14.57
82636;BMP280;72317;37.280;-121.948;2024-02-21T18:13:22;97866.50;;;15.14
82636;BMP280;72317;37.280;-121.948;2024-02-21T18:18:23;97984.88;;;15.98
82636;BMP280;72317;37.280;-121.948;2024-02-21T18:23:24;98266.06;;;15.73
82636;BMP280;72317;37.280;-121.948;2024-02-21T18:28:24;98910.56;;;18.78
82636;BMP280;72317;37.280;-121.948;2024-02-21T18:33:25;99107.19;;;17.76
82636;BMP280;72317;37.280;-121.948;2024-02-21T18:38:26;99228.03;;;21.16
82636;BMP280;72317;37.280;-121.948;2024-02-21T18:43:27;101203.66;;;23.74
82636;BMP280;72317;37.280;-121.948;2024-02-21T18:48:27;101515.72;;;24.46
82636;BMP280;72317;37.280;-121.948;2024-02-21T18:53:28;101590.66;;;24.87
82636;BMP280;72317;37.280;-121.948;2024-02-21T18:58:29;101622.28;;;26.09
82636;BMP280;72317;37.280;-121.948;2024-02-21T19:03:30;101663.25;;;26.93
82636;BMP280;72317;37.280;-121.948;2024-02-21T19:08:30;101678.63;;;29.39
82636;BMP280;72317;37.280;-121.948;2024-02-21T19:13:31;101691.13;;;31.58
82636;BMP280;72317;37.280;-121.948;2024-02-21T19:18:32;101686.63;;;31.29
82636;BMP280;72317;37.280;-121.948;2024-02-21T19:23:33;101683.50;;;28.91
82636;BMP280;72317;37.280;-121.948;2024-02-21T19:28:33;101690.59;;;31.54
82636;BMP280;72317;37.280;-121.948;2024-02-21T19:33:34;101692.75;;;30.87
82636;BMP280;72317;37.280;-121.948;2024-02-21T19:38:35;101692.47;;;33.20
82636;BMP280;72317;37.280;-121.948;2024-02-21T19:43:36;101692.75;;;30.66
82636;BMP280;72317;37.280;-121.948;2024-02-21T19:48:37;101683.72;;;31.80
82636;BMP280;72317;37.280;-121.948;2024-02-21T19:53:38;101679.22;;;32.42
82636;BMP280;72317;37.280;-121.948;2024-02-21T19:58:38;101666.28;;;31.69
82636;BMP280;72317;37.280;-121.948;2024-02-21T20:03:39;101658.09;;;33.50
82636;BMP280;72317;37.280;-121.948;2024-02-21T20:08:40;101645.13;;;29.46
82636;BMP280;72317;37.280;-121.948;2024-02-21T20:13:40;101615.56;;;24.32
82636;BMP280;72317;37.280;-121.948;2024-02-21T20:18:41;101601.69;;;23.85
82636;BMP280;72317;37.280;-121.948;2024-02-21T20:23:42;101584.66;;;22.62
82636;BMP280;72317;37.280;-121.948;2024-02-21T20:28:43;101572.88;;;21.77
82636;BMP280;72317;37.280;-121.948;2024-02-21T20:33:44;101568.13;;;20.41
82636;BMP280;72317;37.280;-121.948;2024-02-21T20:38:44;101558.41;;;19.79
82636;BMP280;72317;37.280;-121.948;2024-02-21T20:43:46;101536.16;;;20.18
82636;BMP280;72317;37.280;-121.948;2024-02-21T20:48:46;101501.28;;;20.86
82636;BMP280;72317;37.280;-121.948;2024-02-21T20:53:47;101513.13;;;20.53
82636;BMP280;72317;37.280;-121.948;2024-02-21T20:58:48;101484.41;;;20.48
82636;BMP280;72317;37.280;-121.948;2024-02-21T21:03:49;101479.16;;;20.34
82636;BMP280;72317;37.280;-121.948;2024-02-21T21:08:49;101454.91;;;20.90
82636;BMP280;72317;37.280;-121.948;2024-02-21T21:13:50;101449.63;;;21.03
82636;BMP280;72317;37.280;-121.948;2024-02-21T21:18:51;101429.97;;;21.11
82636;BMP280;72317;37.280;-121.948;2024-02-21T21:23:52;101455.69;;;20.44
82636;BMP280;72317;37.280;-121.948;2024-02-21T21:28:53;101426.91;;;20.19
82636;BMP280;72317;37.280;-121.948;2024-02-21T21:33:53;101422.50;;;20.29
82636;BMP280;72317;37.280;-121.948;2024-02-21T21:38:54;101425.00;;;19.89
82636;BMP280;72317;37.280;-121.948;2024-02-21T21:43:55;101434.56;;;20.01
82636;BMP280;72317;37.280;-121.948;2024-02-21T21:48:55;101412.44;;;20.22
82636;BMP280;72317;37.280;-121.948;2024-02-21T21:53:56;101375.06;;;20.00
82636;BMP280;72317;37.280;-121.948;2024-02-21T21:58:57;101361.59;;;19.92
82636;BMP280;72317;37.280;-121.948;2024-02-21T22:04:00;101334.59;;;19.21
82636;BMP280;72317;37.280;-121.948;2024-02-21T22:09:00;101373.66;;;19.91
82636;BMP280;72317;37.280;-121.948;2024-02-21T22:14:01;101365.75;;;20.01
82636;BMP280;72317;37.280;-121.948;2024-02-21T22:19:02;101349.69;;;19.83
82636;BMP280;72317;37.280;-121.948;2024-02-21T22:24:03;101347.44;;;19.51
82636;BMP280;72317;37.280;-121.948;2024-02-21T22:29:05;101375.56;;;19.03
82636;BMP280;72317;37.280;-121.948;2024-02-21T22:34:06;101358.22;;;19.24
82636;BMP280;72317;37.280;-121.948;2024-02-21T22:39:06;101359.28;;;19.03
82636;BMP280;72317;37.280;-121.948;2024-02-21T22:44:07;101328.53;;;18.31
82636;BMP280;72317;37.280;-121.948;2024-02-21T22:49:08;101170.97;;;18.49
82636;BMP280;72317;37.280;-121.948;2024-02-21T22:54:29;100940.31;;;18.22
82636;BMP280;72317;37.280;-121.948;2024-02-21T22:59:29;100691.72;;;18.12
82636;BMP280;72317;37.280;-121.948;2024-02-21T23:04:30;100563.66;;;17.81
82636;BMP280;72317;37.280;-121.948;2024-02-21T23:09:32;100386.47;;;17.55
82636;BMP280;72317;37.280;-121.948;2024-02-21T23:14:32;100257.66;;;17.70
82636;BMP280;72317;37.280;-121.948;2024-02-21T23:19:33;100181.72;;;17.74
82636;BMP280;72317;37.280;-121.948;2024-02-21T23:24:34;100168.47;;;17.76
82636;BMP280;72317;37.280;-121.948;2024-02-21T23:29:35;100093.56;;;17.69
82636;BMP280;72317;37.280;-121.948;2024-02-21T23:34:36;99937.41;;;17.46
82636;BMP280;72317;37.280;-121.948;2024-02-21T23:39:37;99761.06;;;17.57
82636;BMP280;72317;37.280;-121.948;2024-02-21T23:44:38;99057.13;;;17.13
82636;BMP280;72317;37.280;-121.948;2024-02-21T23:49:38;98958.03;;;17.25
82636;BMP280;72317;37.280;-121.948;2024-02-21T23:54:40;98561.63;;;17.35
82636;BMP280;72317;37.280;-121.948;2024-02-21T23:59:41;98830.53;;;17.05
